sensor_id;sensor_type;location;lat;lon;timestamp;P1;durP1;ratioP1;P2;durP2;ratioP2
76107;SDS011;64834;52.516;10.528;2024-03-02T00:02:11;23.13;;;12.05;;
76107;SDS011;64834;52.516;10.528;2024-03-02T00:04:37;20.90;;;11.80;;
76107;SDS011;64834;52.516;10.528;2024-03-02T00:07:02;23.30;;;12.00;;
76107;SDS011;64834;52.516;10.528;2024-03-02T00:09:28;23.17;;;11.63;;
76107;SDS011;64834;52.516;10.528;2024-03-02T00:11:54;22.92;;;11.50;;
76107;SDS011;64834;52.516;10.528;2024-03-02T00:14:19;23.10;;;12.02;;
76107;SDS011;64834;52.516;10.528;2024-03-02T00:16:44;20.73;;;10.98;;
76107;SDS011;64834;52.516;10.528;2024-03-02T00:19:10;20.23;;;10.98;;
76107;SDS011;64834;52.516;10.528;2024-03-02T00:21:36;23.75;;;10.95;;
76107;SDS011;64834;52.516;10.528;2024-03-02T00:24:06;20.00;;;10.65;;
76107;SDS011;64834;52.516;10.528;2024-03-02T00:26:44;22.88;;;10.48;;
76107;SDS011;64834;52.516;10.528;2024-03-02T00:29:10;22.42;;;11.75;;
76107;SDS011;64834;52.516;10.528;2024-03-02T00:31:38;22.55;;;10.52;;
76107;SDS011;64834;52.516;10.528;2024-03-02T00:34:04;20.33;;;11.35;;
76107;SDS011;64834;52.516;10.528;2024-03-02T00:36:30;19.23;;;10.15;;
76107;SDS011;64834;52.516;10.528;2024-03-02T00:38:56;19.58;;;10.73;;
76107;SDS011;64834;52.516;10.528;2024-03-02T00:41:22;21.55;;;10.68;;
76107;SDS011;64834;52.516;10.528;2024-03-02T00:44:02;23.17;;;10.85;;
76107;SDS011;64834;52.516;10.528;2024-03-02T00:46:33;18.98;;;9.93;;
76107;SDS011;64834;52.516;10.528;2024-03-02T00:48:59;21.27;;;11.60;;
76107;SDS011;64834;52.516;10.528;2024-03-02T00:51:32;19.50;;;10.80;;
76107;SDS011;64834;52.516;10.528;2024-03-02T00:54:00;23.30;;;10.52;;
76107;SDS011;64834;52.516;10.528;2024-03-02T00:56:29;22.88;;;11.80;;
76107;SDS011;64834;52.516;10.528;2024-03-02T00:58:55;22.33;;;11.18;;
76107;SDS011;64834;52.516;10.528;2024-03-02T01:01:20;23.13;;;10.95;;
76107;SDS011;64834;52.516;10.528;2024-03-02T01:03:46;21.75;;;10.85;;
76107;SDS011;64834;52.516;10.528;2024-03-02T01:06:11;19.70;;;10.25;;
76107;SDS011;64834;52.516;10.528;2024-03-02T01:08:37;18.77;;;10.50;;
76107;SDS011;64834;52.516;10.528;2024-03-02T01:11:03;21.80;;;10.38;;
76107;SDS011;64834;52.516;10.528;2024-03-02T01:13:29;21.35;;;11.23;;
76107;SDS011;64834;52.516;10.528;2024-03-02T01:15:54;21.05;;;11.20;;
76107;SDS011;64834;52.516;10.528;2024-03-02T01:18:20;20.63;;;10.90;;
76107;SDS011;64834;52.516;10.528;2024-03-02T01:20:47;23.63;;;10.52;;
76107;SDS011;64834;52.516;10.528;2024-03-02T01:23:13;22.38;;;10.70;;
76107;SDS011;64834;52.516;10.528;2024-03-02T01:25:38;20.02;;;10.82;;
76107;SDS011;64834;52.516;10.528;2024-03-02T01:28:04;19.15;;;10.30;;
76107;SDS011;64834;52.516;10.528;2024-03-02T01:30:30;20.73;;;9.95;;
76107;SDS011;64834;52.516;10.528;2024-03-02T01:32:56;23.05;;;10.77;;
76107;SDS011;64834;52.516;10.528;2024-03-02T01:35:21;24.15;;;10.93;;
76107;SDS011;64834;52.516;10.528;2024-03-02T01:37:46;24.05;;;10.65;;
76107;SDS011;64834;52.516;10.528;2024-03-02T01:40:12;22.33;;;10.35;;
76107;SDS011;64834;52.516;10.528;2024-03-02T01:42:38;20.02;;;10.82;;
76107;SDS011;64834;52.516;10.528;2024-03-02T01:45:07;22.35;;;10.23;;
76107;SDS011;64834;52.516;10.528;2024-03-02T01:47:33;19.05;;;10.00;;
76107;SDS011;64834;52.516;10.528;2024-03-02T01:49:59;20.75;;;10.55;;
76107;SDS011;64834;52.516;10.528;2024-03-02T01:52:25;21.55;;;11.52;;
76107;SDS011;64834;52.516;10.528;2024-03-02T01:54:50;21.17;;;11.65;;
76107;SDS011;64834;52.516;10.528;2024-03-02T01:57:15;20.10;;;10.55;;
76107;SDS011;64834;52.516;10.528;2024-03-02T01:59:41;22.35;;;11.13;;
76107;SDS011;64834;52.516;10.528;2024-03-02T02:02:06;20.13;;;10.23;;
76107;SDS011;64834;52.516;10.528;2024-03-02T02:04:32;20.60;;;10.30;;
76107;SDS011;64834;52.516;10.528;2024-03-02T02:06:57;21.65;;;10.60;;
76107;SDS011;64834;52.516;10.528;2024-03-02T02:09:24;20.27;;;11.35;;
76107;SDS011;64834;52.516;10.528;2024-03-02T02:11:50;22.67;;;10.98;;
76107;SDS011;64834;52.516;10.528;2024-03-02T02:14:15;18.23;;;10.45;;
76107;SDS011;64834;52.516;10.528;2024-03-02T02:16:41;20.88;;;10.85;;
76107;SDS011;64834;52.516;10.528;2024-03-02T02:19:06;19.80;;;11.07;;
76107;SDS011;64834;52.516;10.528;2024-03-02T02:21:31;22.58;;;10.90;;
76107;SDS011;64834;52.516;10.528;2024-03-02T02:23:57;20.30;;;9.82;;
76107;SDS011;64834;52.516;10.528;2024-03-02T02:26:22;19.63;;;10.40;;
76107;SDS011;64834;52.516;10.528;2024-03-02T02:28:47;20.60;;;10.00;;
76107;SDS011;64834;52.516;10.528;2024-03-02T02:31:13;22.17;;;11.15;;
76107;SDS011;64834;52.516;10.528;2024-03-02T02:33:39;20.83;;;10.65;;
76107;SDS011;64834;52.516;10.528;2024-03-02T02:36:05;18.25;;;10.32;;
76107;SDS011;64834;52.516;10.528;2024-03-02T02:38:30;20.33;;;10.15;;
76107;SDS011;64834;52.516;10.528;2024-03-02T02:40:58;19.30;;;9.95;;
76107;SDS011;64834;52.516;10.528;2024-03-02T02:43:23;21.73;;;10.70;;
76107;SDS011;64834;52.516;10.528;2024-03-02T02:45:51;18.92;;;9.68;;
76107;SDS011;64834;52.516;10.528;2024-03-02T02:48:19;18.10;;;9.73;;
76107;SDS011;64834;52.516;10.528;2024-03-02T02:50:45;22.83;;;11.05;;
76107;SDS011;64834;52.516;10.528;2024-03-02T02:53:10;21.45;;;11.13;;
76107;SDS011;64834;52.516;10.528;2024-03-02T02:55:35;19.15;;;9.80;;
76107;SDS011;64834;52.516;10.528;2024-03-02T02:58:05;22.45;;;10.63;;
76107;SDS011;64834;52.516;10.528;2024-03-02T03:00:31;22.52;;;10.73;;
76107;SDS011;64834;52.516;10.528;2024-03-02T03:02:56;20.40;;;10.85;;
76107;SDS011;64834;52.516;10.528;2024-03-02T03:05:22;19.95;;;10.63;;
76107;SDS011;64834;52.516;10.528;2024-03-02T03:07:47;22.02;;;10.57;;
76107;SDS011;64834;52.516;10.528;2024-03-02T03:10:14;22.10;;;10.98;;
76107;SDS011;64834;52.516;10.528;2024-03-02T03:12:40;21.23;;;11.13;;
76107;SDS011;64834;52.516;10.528;2024-03-02T03:15:07;21.00;;;10.68;;
76107;SDS011;64834;52.516;10.528;2024-03-02T03:17:33;21.15;;;9.98;;
76107;SDS011;64834;52.516;10.528;2024-03-02T03:19:59;22.05;;;11.25;;
76107;SDS011;64834;52.516;10.528;2024-03-02T03:22:25;21.42;;;10.88;;
76107;SDS011;64834;52.516;10.528;2024-03-02T03:24:51;23.10;;;11.23;;
76107;SDS011;64834;52.516;10.528;2024-03-02T03:27:16;21.27;;;10.38;;
76107;SDS011;64834;52.516;10.528;2024-03-02T03:29:41;21.63;;;10.93;;
76107;SDS011;64834;52.516;10.528;2024-03-02T03:32:07;21.48;;;10.95;;
76107;SDS011;64834;52.516;10.528;2024-03-02T03:34:33;24.73;;;11.43;;
76107;SDS011;64834;52.516;10.528;2024-03-02T03:36:59;23.15;;;10.98;;
76107;SDS011;64834;52.516;10.528;2024-03-02T03:39:24;27.45;;;11.93;;
76107;SDS011;64834;52.516;10.528;2024-03-02T03:41:49;20.27;;;11.25;;
76107;SDS011;64834;52.516;10.528;2024-03-02T03:44:15;24.48;;;11.30;;
76107;SDS011;64834;52.516;10.528;2024-03-02T03:46:40;25.92;;;10.70;;
76107;SDS011;64834;52.516;10.528;2024-03-02T03:49:06;23.48;;;10.75;;
76107;SDS011;64834;52.516;10.528;2024-03-02T03:51:31;21.33;;;10.70;;
76107;SDS011;64834;52.516;10.528;2024-03-02T03:53:56;23.15;;;11.57;;
76107;SDS011;64834;52.516;10.528;2024-03-02T03:56:22;24.42;;;11.18;;
76107;SDS011;64834;52.516;10.528;2024-03-02T03:58:47;23.25;;;10.85;;
76107;SDS011;64834;52.516;10.528;2024-03-02T04:01:12;23.42;;;11.98;;
76107;SDS011;64834;52.516;10.528;2024-03-02T04:03:38;22.67;;;11.07;;
76107;SDS011;64834;52.516;10.528;2024-03-02T04:06:03;20.98;;;10.13;;
76107;SDS011;64834;52.516;10.528;2024-03-02T04:08:29;22.02;;;10.80;;
76107;SDS011;64834;52.516;10.528;2024-03-02T04:10:54;23.58;;;10.98;;
76107;SDS011;64834;52.516;10.528;2024-03-02T04:13:19;24.20;;;11.95;;
76107;SDS011;64834;52.516;10.528;2024-03-02T04:15:45;23.08;;;10.88;;
76107;SDS011;64834;52.516;10.528;2024-03-02T04:18:10;24.83;;;11.45;;
76107;SDS011;64834;52.516;10.528;2024-03-02T04:20:36;23.08;;;11.82;;
76107;SDS011;64834;52.516;10.528;2024-03-02T04:23:01;25.98;;;11.43;;
76107;SDS011;64834;52.516;10.528;2024-03-02T04:25:27;23.98;;;11.73;;
76107;SDS011;64834;52.516;10.528;2024-03-02T04:27:52;24.65;;;11.75;;
76107;SDS011;64834;52.516;10.528;2024-03-02T04:30:18;25.90;;;11.40;;
76107;SDS011;64834;52.516;10.528;2024-03-02T04:32:43;23.77;;;11.80;;
76107;SDS011;64834;52.516;10.528;2024-03-02T04:37:36;23.07;;;11.80;;
76107;SDS011;64834;52.516;10.528;2024-03-02T04:40:01;27.60;;;12.45;;
76107;SDS011;64834;52.516;10.528;2024-03-02T04:42:27;23.45;;;11.27;;
76107;SDS011;64834;52.516;10.528;2024-03-02T04:44:52;26.17;;;12.57;;
76107;SDS011;64834;52.516;10.528;2024-03-02T04:47:17;27.20;;;13.18;;
76107;SDS011;64834;52.516;10.528;2024-03-02T04:49:43;25.98;;;11.68;;
76107;SDS011;64834;52.516;10.528;2024-03-02T04:52:08;25.50;;;12.45;;
76107;SDS011;64834;52.516;10.528;2024-03-02T04:54:34;26.35;;;12.27;;
76107;SDS011;64834;52.516;10.528;2024-03-02T04:57:19;25.00;;;12.25;;
76107;SDS011;64834;52.516;10.528;2024-03-02T04:59:44;26.67;;;12.88;;
76107;SDS011;64834;52.516;10.528;2024-03-02T05:02:10;25.13;;;12.45;;
76107;SDS011;64834;52.516;10.528;2024-03-02T05:04:35;27.80;;;13.07;;
76107;SDS011;64834;52.516;10.528;2024-03-02T05:07:00;28.17;;;12.85;;
76107;SDS011;64834;52.516;10.528;2024-03-02T05:09:26;24.10;;;12.43;;
76107;SDS011;64834;52.516;10.528;2024-03-02T05:11:51;27.27;;;12.95;;
76107;SDS011;64834;52.516;10.528;2024-03-02T05:14:48;27.30;;;12.70;;
76107;SDS011;64834;52.516;10.528;2024-03-02T05:17:14;27.60;;;12.18;;
76107;SDS011;64834;52.516;10.528;2024-03-02T05:19:39;25.90;;;12.60;;
76107;SDS011;64834;52.516;10.528;2024-03-02T05:22:04;26.77;;;12.55;;
76107;SDS011;64834;52.516;10.528;2024-03-02T05:24:30;26.75;;;12.38;;
76107;SDS011;64834;52.516;10.528;2024-03-02T05:26:56;29.25;;;13.98;;
76107;SDS011;64834;52.516;10.528;2024-03-02T05:29:21;29.58;;;13.30;;
76107;SDS011;64834;52.516;10.528;2024-03-02T05:31:46;28.20;;;12.93;;
76107;SDS011;64834;52.516;10.528;2024-03-02T05:34:12;26.77;;;12.85;;
76107;SDS011;64834;52.516;10.528;2024-03-02T05:36:40;26.45;;;12.45;;
76107;SDS011;64834;52.516;10.528;2024-03-02T05:39:05;26.08;;;12.93;;
76107;SDS011;64834;52.516;10.528;2024-03-02T05:41:35;27.23;;;13.00;;
76107;SDS011;64834;52.516;10.528;2024-03-02T05:44:00;31.40;;;13.65;;
76107;SDS011;64834;52.516;10.528;2024-03-02T05:46:26;27.95;;;12.95;;
76107;SDS011;64834;52.516;10.528;2024-03-02T05:48:52;29.02;;;13.65;;
76107;SDS011;64834;52.516;10.528;2024-03-02T05:51:17;31.13;;;13.43;;
76107;SDS011;64834;52.516;10.528;2024-03-02T05:53:43;26.13;;;13.23;;
76107;SDS011;64834;52.516;10.528;2024-03-02T05:56:08;29.40;;;13.82;;
76107;SDS011;64834;52.516;10.528;2024-03-02T05:58:34;29.52;;;13.60;;
76107;SDS011;64834;52.516;10.528;2024-03-02T06:01:16;29.17;;;13.38;;
76107;SDS011;64834;52.516;10.528;2024-03-02T06:03:43;37.33;;;15.23;;
76107;SDS011;64834;52.516;10.528;2024-03-02T06:06:08;32.15;;;14.73;;
76107;SDS011;64834;52.516;10.528;2024-03-02T06:08:33;34.60;;;15.40;;
76107;SDS011;64834;52.516;10.528;2024-03-02T06:11:00;34.45;;;15.70;;
76107;SDS011;64834;52.516;10.528;2024-03-02T06:13:25;33.35;;;14.57;;
76107;SDS011;64834;52.516;10.528;2024-03-02T06:15:51;29.13;;;14.07;;
76107;SDS011;64834;52.516;10.528;2024-03-02T06:18:16;29.38;;;13.93;;
76107;SDS011;64834;52.516;10.528;2024-03-02T06:20:42;30.55;;;15.45;;
76107;SDS011;64834;52.516;10.528;2024-03-02T06:23:07;31.30;;;13.82;;
76107;SDS011;64834;52.516;10.528;2024-03-02T06:25:33;28.98;;;13.80;;
76107;SDS011;64834;52.516;10.528;2024-03-02T06:27:58;29.90;;;13.40;;
76107;SDS011;64834;52.516;10.528;2024-03-02T06:30:24;33.40;;;14.20;;
76107;SDS011;64834;52.516;10.528;2024-03-02T06:32:49;30.35;;;14.23;;
76107;SDS011;64834;52.516;10.528;2024-03-02T06:35:14;30.15;;;14.13;;
76107;SDS011;64834;52.516;10.528;2024-03-02T06:37:40;33.78;;;15.38;;
76107;SDS011;64834;52.516;10.528;2024-03-02T06:40:06;35.67;;;15.38;;
76107;SDS011;64834;52.516;10.528;2024-03-02T06:42:35;34.13;;;15.23;;
76107;SDS011;64834;52.516;10.528;2024-03-02T06:45:01;30.15;;;14.52;;
76107;SDS011;64834;52.516;10.528;2024-03-02T06:47:27;29.65;;;14.20;;
76107;SDS011;64834;52.516;10.528;2024-03-02T06:49:52;30.95;;;14.82;;
76107;SDS011;64834;52.516;10.528;2024-03-02T06:52:18;30.60;;;13.95;;
76107;SDS011;64834;52.516;10.528;2024-03-02T06:54:55;30.67;;;14.55;;
76107;SDS011;64834;52.516;10.528;2024-03-02T06:58:02;28.63;;;13.73;;
76107;SDS011;64834;52.516;10.528;2024-03-02T07:03:00;29.70;;;14.35;;
76107;SDS011;64834;52.516;10.528;2024-03-02T07:05:26;29.45;;;14.85;;
76107;SDS011;64834;52.516;10.528;2024-03-02T07:07:51;32.35;;;16.05;;
76107;SDS011;64834;52.516;10.528;2024-03-02T07:10:16;29.95;;;13.88;;
76107;SDS011;64834;52.516;10.528;2024-03-02T07:12:42;27.75;;;14.57;;
76107;SDS011;64834;52.516;10.528;2024-03-02T07:15:07;29.33;;;14.85;;
76107;SDS011;64834;52.516;10.528;2024-03-02T07:17:43;27.70;;;13.45;;
76107;SDS011;64834;52.516;10.528;2024-03-02T07:20:09;28.52;;;13.80;;
76107;SDS011;64834;52.516;10.528;2024-03-02T07:22:34;29.17;;;13.25;;
76107;SDS011;64834;52.516;10.528;2024-03-02T07:25:00;28.08;;;13.15;;
76107;SDS011;64834;52.516;10.528;2024-03-02T07:27:25;29.08;;;13.77;;
76107;SDS011;64834;52.516;10.528;2024-03-02T07:29:50;26.48;;;12.85;;
76107;SDS011;64834;52.516;10.528;2024-03-02T07:32:16;29.77;;;13.25;;
76107;SDS011;64834;52.516;10.528;2024-03-02T07:34:41;24.85;;;12.80;;
76107;SDS011;64834;52.516;10.528;2024-03-02T07:37:06;28.58;;;13.93;;
76107;SDS011;64834;52.516;10.528;2024-03-02T07:39:32;26.30;;;13.23;;
76107;SDS011;64834;52.516;10.528;2024-03-02T07:41:57;26.27;;;12.68;;
76107;SDS011;64834;52.516;10.528;2024-03-02T07:44:23;27.48;;;12.63;;
76107;SDS011;64834;52.516;10.528;2024-03-02T07:46:49;26.33;;;12.00;;
76107;SDS011;64834;52.516;10.528;2024-03-02T07:49:17;27.60;;;13.10;;
76107;SDS011;64834;52.516;10.528;2024-03-02T07:51:43;27.20;;;13.07;;
76107;SDS011;64834;52.516;10.528;2024-03-02T07:54:09;30.48;;;14.50;;
76107;SDS011;64834;52.516;10.528;2024-03-02T07:56:34;28.80;;;13.38;;
76107;SDS011;64834;52.516;10.528;2024-03-02T07:59:01;30.50;;;15.45;;
76107;SDS011;64834;52.516;10.528;2024-03-02T08:01:27;30.50;;;16.45;;
76107;SDS011;64834;52.516;10.528;2024-03-02T08:03:55;32.47;;;16.17;;
76107;SDS011;64834;52.516;10.528;2024-03-02T08:06:23;30.02;;;15.13;;
76107;SDS011;64834;52.516;10.528;2024-03-02T08:08:52;35.50;;;16.83;;
76107;SDS011;64834;52.516;10.528;2024-03-02T08:11:18;27.00;;;14.55;;
76107;SDS011;64834;52.516;10.528;2024-03-02T08:13:43;25.30;;;12.60;;
76107;SDS011;64834;52.516;10.528;2024-03-02T08:16:08;26.48;;;12.95;;
76107;SDS011;64834;52.516;10.528;2024-03-02T08:18:34;26.33;;;11.73;;
76107;SDS011;64834;52.516;10.528;2024-03-02T08:21:00;24.10;;;11.07;;
76107;SDS011;64834;52.516;10.528;2024-03-02T08:23:25;25.15;;;11.48;;
76107;SDS011;64834;52.516;10.528;2024-03-02T08:25:50;22.50;;;11.25;;
76107;SDS011;64834;52.516;10.528;2024-03-02T08:28:16;22.92;;;11.35;;
76107;SDS011;64834;52.516;10.528;2024-03-02T08:30:42;22.40;;;11.27;;
76107;SDS011;64834;52.516;10.528;2024-03-02T08:33:07;23.10;;;11.13;;
76107;SDS011;64834;52.516;10.528;2024-03-02T08:35:33;25.05;;;11.07;;
76107;SDS011;64834;52.516;10.528;2024-03-02T08:38:01;20.88;;;11.05;;
76107;SDS011;64834;52.516;10.528;2024-03-02T08:40:27;19.70;;;10.30;;
76107;SDS011;64834;52.516;10.528;2024-03-02T08:42:53;17.85;;;9.43;;
76107;SDS011;64834;52.516;10.528;2024-03-02T08:45:18;21.42;;;10.60;;
76107;SDS011;64834;52.516;10.528;2024-03-02T08:47:45;21.52;;;10.77;;
76107;SDS011;64834;52.516;10.528;2024-03-02T08:50:11;19.48;;;9.38;;
76107;SDS011;64834;52.516;10.528;2024-03-02T08:52:36;20.55;;;9.90;;
76107;SDS011;64834;52.516;10.528;2024-03-02T08:55:01;17.65;;;10.52;;
76107;SDS011;64834;52.516;10.528;2024-03-02T08:57:27;19.00;;;10.35;;
76107;SDS011;64834;52.516;10.528;2024-03-02T08:59:52;17.85;;;9.90;;
76107;SDS011;64834;52.516;10.528;2024-03-02T09:02:18;17.92;;;9.20;;
76107;SDS011;64834;52.516;10.528;2024-03-02T09:04:43;18.65;;;9.80;;
76107;SDS011;64834;52.516;10.528;2024-03-02T09:07:08;17.98;;;9.05;;
76107;SDS011;64834;52.516;10.528;2024-03-02T09:09:34;16.65;;;9.27;;
76107;SDS011;64834;52.516;10.528;2024-03-02T09:12:00;19.38;;;9.63;;
76107;SDS011;64834;52.516;10.528;2024-03-02T09:14:25;19.60;;;10.35;;
76107;SDS011;64834;52.516;10.528;2024-03-02T09:16:50;17.60;;;9.15;;
76107;SDS011;64834;52.516;10.528;2024-03-02T09:19:16;19.30;;;9.63;;
76107;SDS011;64834;52.516;10.528;2024-03-02T09:21:41;15.70;;;9.02;;
76107;SDS011;64834;52.516;10.528;2024-03-02T09:24:07;17.65;;;9.27;;
76107;SDS011;64834;52.516;10.528;2024-03-02T09:26:32;17.85;;;8.90;;
76107;SDS011;64834;52.516;10.528;2024-03-02T09:28:58;18.10;;;9.25;;
76107;SDS011;64834;52.516;10.528;2024-03-02T09:31:23;17.63;;;8.95;;
76107;SDS011;64834;52.516;10.528;2024-03-02T09:33:48;19.13;;;9.02;;
76107;SDS011;64834;52.516;10.528;2024-03-02T09:36:17;17.70;;;9.30;;
76107;SDS011;64834;52.516;10.528;2024-03-02T09:38:43;17.08;;;8.30;;
76107;SDS011;64834;52.516;10.528;2024-03-02T09:41:09;17.67;;;9.15;;
76107;SDS011;64834;52.516;10.528;2024-03-02T09:43:34;20.08;;;8.98;;
76107;SDS011;64834;52.516;10.528;2024-03-02T09:46:00;17.48;;;8.45;;
76107;SDS011;64834;52.516;10.528;2024-03-02T09:48:25;19.23;;;8.35;;
76107;SDS011;64834;52.516;10.528;2024-03-02T09:50:50;16.45;;;8.25;;
76107;SDS011;64834;52.516;10.528;2024-03-02T09:53:16;16.33;;;8.25;;
76107;SDS011;64834;52.516;10.528;2024-03-02T09:55:45;15.05;;;8.32;;
76107;SDS011;64834;52.516;10.528;2024-03-02T09:58:11;18.17;;;8.18;;
76107;SDS011;64834;52.516;10.528;2024-03-02T10:00:37;15.30;;;8.15;;
76107;SDS011;64834;52.516;10.528;2024-03-02T10:03:02;15.32;;;9.18;;
76107;SDS011;64834;52.516;10.528;2024-03-02T10:05:27;17.48;;;9.23;;
76107;SDS011;64834;52.516;10.528;2024-03-02T10:08:00;17.25;;;8.35;;
76107;SDS011;64834;52.516;10.528;2024-03-02T10:10:34;15.93;;;8.90;;
76107;SDS011;64834;52.516;10.528;2024-03-02T10:13:04;15.07;;;8.30;;
76107;SDS011;64834;52.516;10.528;2024-03-02T10:15:30;15.73;;;8.48;;
76107;SDS011;64834;52.516;10.528;2024-03-02T10:17:55;15.55;;;8.02;;
76107;SDS011;64834;52.516;10.528;2024-03-02T10:20:21;12.82;;;7.15;;
76107;SDS011;64834;52.516;10.528;2024-03-02T10:22:50;15.82;;;8.18;;
76107;SDS011;64834;52.516;10.528;2024-03-02T10:25:28;15.43;;;9.23;;
76107;SDS011;64834;52.516;10.528;2024-03-02T10:27:57;12.77;;;7.32;;
76107;SDS011;64834;52.516;10.528;2024-03-02T10:30:22;13.40;;;7.50;;
76107;SDS011;64834;52.516;10.528;2024-03-02T10:32:49;16.75;;;8.32;;
76107;SDS011;64834;52.516;10.528;2024-03-02T10:35:15;14.15;;;8.23;;
76107;SDS011;64834;52.516;10.528;2024-03-02T10:37:41;14.50;;;7.95;;
76107;SDS011;64834;52.516;10.528;2024-03-02T10:40:07;16.25;;;7.50;;
76107;SDS011;64834;52.516;10.528;2024-03-02T10:42:35;13.18;;;7.47;;
76107;SDS011;64834;52.516;10.528;2024-03-02T10:45:03;14.27;;;7.85;;
76107;SDS011;64834;52.516;10.528;2024-03-02T10:47:29;12.75;;;7.10;;
76107;SDS011;64834;52.516;10.528;2024-03-02T10:54:49;10.07;;;5.10;;
76107;SDS011;64834;52.516;10.528;2024-03-02T10:57:14;10.25;;;6.00;;
76107;SDS011;64834;52.516;10.528;2024-03-02T10:59:55;15.40;;;6.57;;
76107;SDS011;64834;52.516;10.528;2024-03-02T11:02:23;10.07;;;5.63;;
76107;SDS011;64834;52.516;10.528;2024-03-02T11:04:50;12.85;;;6.40;;
76107;SDS011;64834;52.516;10.528;2024-03-02T11:07:20;13.68;;;7.78;;
76107;SDS011;64834;52.516;10.528;2024-03-02T11:09:52;12.63;;;6.18;;
76107;SDS011;64834;52.516;10.528;2024-03-02T11:14:56;11.25;;;6.53;;
76107;SDS011;64834;52.516;10.528;2024-03-02T11:17:21;12.45;;;6.45;;
76107;SDS011;64834;52.516;10.528;2024-03-02T11:19:48;13.75;;;7.47;;
76107;SDS011;64834;52.516;10.528;2024-03-02T11:22:14;13.13;;;6.10;;
76107;SDS011;64834;52.516;10.528;2024-03-02T11:24:50;10.93;;;6.55;;
76107;SDS011;64834;52.516;10.528;2024-03-02T11:30:55;9.70;;;4.32;;
76107;SDS011;64834;52.516;10.528;2024-03-02T11:33:02;7.53;;;4.05;;
76107;SDS011;64834;52.516;10.528;2024-03-02T11:35:35;7.55;;;3.97;;
76107;SDS011;64834;52.516;10.528;2024-03-02T11:38:02;6.97;;;3.83;;
76107;SDS011;64834;52.516;10.528;2024-03-02T11:40:28;7.53;;;3.90;;
76107;SDS011;64834;52.516;10.528;2024-03-02T11:42:54;9.60;;;4.72;;
76107;SDS011;64834;52.516;10.528;2024-03-02T11:45:23;8.35;;;4.28;;
76107;SDS011;64834;52.516;10.528;2024-03-02T11:47:56;10.70;;;5.00;;
76107;SDS011;64834;52.516;10.528;2024-03-02T11:50:35;9.75;;;5.38;;
76107;SDS011;64834;52.516;10.528;2024-03-02T11:53:05;9.30;;;4.32;;
76107;SDS011;64834;52.516;10.528;2024-03-02T11:55:36;7.80;;;4.38;;
76107;SDS011;64834;52.516;10.528;2024-03-02T11:58:06;7.63;;;4.18;;
76107;SDS011;64834;52.516;10.528;2024-03-02T12:00:32;7.70;;;3.72;;
76107;SDS011;64834;52.516;10.528;2024-03-02T12:03:01;8.77;;;3.55;;
76107;SDS011;64834;52.516;10.528;2024-03-02T12:05:28;8.13;;;4.22;;
76107;SDS011;64834;52.516;10.528;2024-03-02T12:07:58;7.90;;;3.67;;
76107;SDS011;64834;52.516;10.528;2024-03-02T12:10:25;6.47;;;3.65;;
76107;SDS011;64834;52.516;10.528;2024-03-02T12:12:57;8.05;;;3.95;;
76107;SDS011;64834;52.516;10.528;2024-03-02T12:15:25;5.85;;;3.30;;
76107;SDS011;64834;52.516;10.528;2024-03-02T12:17:58;6.78;;;3.88;;
76107;SDS011;64834;52.516;10.528;2024-03-02T12:20:26;7.80;;;4.03;;
76107;SDS011;64834;52.516;10.528;2024-03-02T12:22:54;7.65;;;3.60;;
76107;SDS011;64834;52.516;10.528;2024-03-02T12:25:20;8.63;;;4.05;;
76107;SDS011;64834;52.516;10.528;2024-03-02T12:27:50;6.95;;;4.20;;
76107;SDS011;64834;52.516;10.528;2024-03-02T12:30:18;7.55;;;4.03;;
76107;SDS011;64834;52.516;10.528;2024-03-02T12:32:44;9.45;;;3.83;;
76107;SDS011;64834;52.516;10.528;2024-03-02T12:35:10;6.97;;;3.90;;
76107;SDS011;64834;52.516;10.528;2024-03-02T12:37:46;6.22;;;3.25;;
76107;SDS011;64834;52.516;10.528;2024-03-02T12:40:12;6.72;;;3.13;;
76107;SDS011;64834;52.516;10.528;2024-03-02T12:42:39;6.60;;;3.20;;
76107;SDS011;64834;52.516;10.528;2024-03-02T12:45:06;7.15;;;3.13;;
76107;SDS011;64834;52.516;10.528;2024-03-02T12:47:33;6.35;;;2.88;;
76107;SDS011;64834;52.516;10.528;2024-03-02T12:49:59;6.38;;;3.50;;
76107;SDS011;64834;52.516;10.528;2024-03-02T12:52:25;6.50;;;3.50;;
76107;SDS011;64834;52.516;10.528;2024-03-02T12:54:50;8.77;;;3.70;;
76107;SDS011;64834;52.516;10.528;2024-03-02T12:57:17;6.32;;;3.45;;
76107;SDS011;64834;52.516;10.528;2024-03-02T12:59:45;5.78;;;3.20;;
76107;SDS011;64834;52.516;10.528;2024-03-02T13:02:16;6.18;;;3.22;;
76107;SDS011;64834;52.516;10.528;2024-03-02T13:04:42;6.75;;;3.72;;
76107;SDS011;64834;52.516;10.528;2024-03-02T13:07:08;5.07;;;2.80;;
76107;SDS011;64834;52.516;10.528;2024-03-02T13:09:33;5.47;;;3.08;;
76107;SDS011;64834;52.516;10.528;2024-03-02T13:11:59;5.68;;;3.00;;
76107;SDS011;64834;52.516;10.528;2024-03-02T13:14:25;7.78;;;3.58;;
76107;SDS011;64834;52.516;10.528;2024-03-02T13:16:51;8.77;;;3.97;;
76107;SDS011;64834;52.516;10.528;2024-03-02T13:19:17;7.03;;;3.72;;
76107;SDS011;64834;52.516;10.528;2024-03-02T13:21:44;6.72;;;3.30;;
76107;SDS011;64834;52.516;10.528;2024-03-02T13:24:09;6.20;;;3.45;;
76107;SDS011;64834;52.516;10.528;2024-03-02T13:26:34;6.40;;;2.85;;
76107;SDS011;64834;52.516;10.528;2024-03-02T13:29:00;6.60;;;3.30;;
76107;SDS011;64834;52.516;10.528;2024-03-02T13:31:25;7.47;;;3.70;;
76107;SDS011;64834;52.516;10.528;2024-03-02T13:33:51;7.22;;;4.07;;
76107;SDS011;64834;52.516;10.528;2024-03-02T13:36:16;7.82;;;3.67;;
76107;SDS011;64834;52.516;10.528;2024-03-02T13:38:43;6.38;;;3.58;;
76107;SDS011;64834;52.516;10.528;2024-03-02T13:41:08;8.48;;;3.95;;
76107;SDS011;64834;52.516;10.528;2024-03-02T13:43:34;6.78;;;3.90;;
76107;SDS011;64834;52.516;10.528;2024-03-02T13:46:00;8.90;;;3.88;;
76107;SDS011;64834;52.516;10.528;2024-03-02T13:48:26;8.77;;;3.60;;
76107;SDS011;64834;52.516;10.528;2024-03-02T13:50:52;7.05;;;3.47;;
76107;SDS011;64834;52.516;10.528;2024-03-02T13:53:18;9.13;;;3.72;;
76107;SDS011;64834;52.516;10.528;2024-03-02T13:55:43;6.53;;;3.50;;
76107;SDS011;64834;52.516;10.528;2024-03-02T13:58:09;8.95;;;3.88;;
76107;SDS011;64834;52.516;10.528;2024-03-02T14:00:35;7.15;;;3.50;;
76107;SDS011;64834;52.516;10.528;2024-03-02T14:03:02;6.55;;;3.67;;
76107;SDS011;64834;52.516;10.528;2024-03-02T14:05:28;6.70;;;3.70;;
76107;SDS011;64834;52.516;10.528;2024-03-02T14:07:54;7.60;;;3.70;;
76107;SDS011;64834;52.516;10.528;2024-03-02T14:10:19;7.90;;;4.05;;
76107;SDS011;64834;52.516;10.528;2024-03-02T14:12:47;7.35;;;4.10;;
76107;SDS011;64834;52.516;10.528;2024-03-02T14:15:13;6.05;;;3.83;;
76107;SDS011;64834;52.516;10.528;2024-03-02T14:17:38;6.13;;;2.85;;
76107;SDS011;64834;52.516;10.528;2024-03-02T14:20:04;6.07;;;3.20;;
76107;SDS011;64834;52.516;10.528;2024-03-02T14:22:30;5.82;;;3.03;;
76107;SDS011;64834;52.516;10.528;2024-03-02T14:24:55;7.93;;;2.97;;
76107;SDS011;64834;52.516;10.528;2024-03-02T14:27:21;5.30;;;2.63;;
76107;SDS011;64834;52.516;10.528;2024-03-02T14:29:46;6.57;;;2.97;;